Sri Jayavardhanapura, Sri Lanka
Current Conditions -  °F | °C
As of 7:10 AM on Saturday 25 Oct 2014 (Local Time) from VCBI Reporting Station
Clear Clear  
Wind Chill: 77°   Ceiling: Unl
Heat Index: 78°   Visibility: 5mi
Dew Point: 72°   Wind: 3mph
Humidity: 83%   Direction: 90°E
Pressure: 29.85"   Gusts: NA
Location:  6.9°N, 79.91°E
Report Text: VCBI 250110Z 09003KT 040V120 8000 SKC 25/22 Q1011 NOSIG
Loading
Personal Weather Stations






























Interactive Weather Map
Tropical Storm Tracking
New forecast layout! Learn more

10-Day Weather Forecast

Advertisements
Track Severe Weather on mobile